Cdry Blue — ICOB — position and weather

sailwx.info

Track history (hours):
 
Tides and Currents Weather Stations Pressure Air Temp Water Temp Dewpoint Dewpoint Depression Visibility Wind Speed Wind Dir Waves Ship Positions

Cdry Blue

Last reported at 2014-Jul-23 13:25 UTC. Time now 2014-Jul-28 06:15 UTC.
Position N 38°22' E 014°10'.

Length 108 m; draft 4.6 m.

Type: Cargo ship. MMSI: 247289300.

Date/timePositionNaut miles runAvg speedWind from/ knotsBaromVisibWave heightAir tempDewpointWater temp
2014-Jul-23 13:25N 38°22' E 014°10'1112.5
2014-Jul-23 12:33N 38°23' E 013°56'1312.9
2014-Jul-23 11:33N 38°23' E 013°40'1312.8
2014-Jul-23 10:33N 38°25' E 013°23'1412.7
2014-Jul-23 09:27N 38°26' E 013°05'1112.5
2014-Jul-23 08:33N 38°26' E 012°51'16112.2
2014-Jul-22 19:21N 38°38' E 009°26'1011.9
2014-Jul-22 18:33N 38°38' E 009°14'1311.8
2014-Jul-22 17:27N 38°39' E 008°57'1112.2
2014-Jul-22 16:33N 38°40' E 008°43'1611.9
2014-Jul-22 15:12N 38°43' E 008°23'2011.8
2014-Jul-22 13:30N 38°51' E 007°60'22112.0
2014-Jul-21 19:08N 40°38' E 003°47'812.0
2014-Jul-21 18:29N 40°41' E 003°38'1212.3
2014-Jul-21 17:31N 40°47' E 003°24'1211.9
2014-Jul-21 16:32N 40°52' E 003°10'1212.1
2014-Jul-21 15:33N 40°58' E 002°57'1312.5
2014-Jul-21 14:33N 41°04' E 002°42'1211.6
2014-Jul-21 13:30N 41°10' E 002°28'1512.1
2014-Jul-21 12:17N 41°17' E 002°11'4 0.2
2014-Jul-20 16:33N 41°21' E 002°09'0 0.0
2014-Jul-20 15:27N 41°21' E 002°09'0 0.0
2014-Jul-20 13:21N 41°21' E 002°09'0 0.0
2014-Jul-20 11:27N 41°21' E 002°09'0 0.0
2014-Jul-20 10:33N 41°21' E 002°09'0 0.0
2014-Jul-20 08:27N 41°21' E 002°09'0 0.0
2014-Jul-20 07:33N 41°21' E 002°09'0 0.0
2014-Jul-20 06:21N 41°21' E 002°09'0 0.0
2014-Jul-20 05:33N 41°21' E 002°09'0 0.0
2014-Jul-20 04:33N 41°21' E 002°09'0 0.0
2014-Jul-20 03:33N 41°21' E 002°09'0 0.0
2014-Jul-20 02:27N 41°21' E 002°09'0 0.0
2014-Jul-20 01:21N 41°21' E 002°09'0 0.0
2014-Jul-20 00:33N 41°21' E 002°09'0 0.0
2014-Jul-19 23:33N 41°21' E 002°09'0 0.0
2014-Jul-19 22:33N 41°21' E 002°09'0 0.0
2014-Jul-19 21:33N 41°21' E 002°09'0 0.0
2014-Jul-19 20:33N 41°21' E 002°09'0 0.0
2014-Jul-19 19:21N 41°21' E 002°09'0 0.0
2014-Jul-19 17:33N 41°21' E 002°09'0 0.0
2014-Jul-19 15:09N 41°21' E 002°09'0 0.0
2014-Jul-19 14:21N 41°21' E 002°09'0 0.0
2014-Jul-19 13:27N 41°21' E 002°09'0 0.0
2014-Jul-19 12:33N 41°21' E 002°09'0 0.0
2014-Jul-19 10:15N 41°21' E 002°09'0 0.0
2014-Jul-19 08:13N 41°21' E 002°09'2 2.8
2014-Jul-19 07:33N 41°19' E 002°10'5 4.7
2014-Jul-19 06:33N 41°14' E 002°10'1110.8
2014-Jul-19 05:33N 41°04' E 002°05'1110.7
2014-Jul-19 04:33N 40°54' E 002°00'1010.5
2014-Jul-19 03:33N 40°46' E 001°52'1010.5
2014-Jul-19 02:33N 40°39' E 001°41'1110.7
2014-Jul-19 01:32N 40°33' E 001°29'1111.0
2014-Jul-19 00:33N 40°27' E 001°18'4510.8
2014-Jul-18 20:21N 40°00' E 000°30'39 1.4
2014-Jul-17 16:08N 39°39' W 000°13'0 0.0
2014-Jul-17 15:20N 39°39' W 000°13'0 0.0
2014-Jul-16 10:32N 39°39' W 000°13'6310.4
2014-Jul-16 04:31N 39°24' E 001°06'1010.8
2014-Jul-16 03:33N 39°21' E 001°19'1110.9
2014-Jul-16 02:33N 39°19' E 001°33'1110.8
2014-Jul-16 01:33N 39°16' E 001°46'1110.8
2014-Jul-16 00:33N 39°14' E 002°00'1110.9
2014-Jul-15 23:34N 39°12' E 002°14'1110.7
2014-Jul-15 22:33N 39°09' E 002°27'1110.6
2014-Jul-15 21:33N 39°07' E 002°41'1010.5
2014-Jul-15 20:33N 39°04' E 002°54'1010.4
2014-Jul-15 19:33N 39°03' E 003°07'1110.5
2014-Jul-15 18:32N 39°03' E 003°21'1210.6
2014-Jul-15 17:22N 39°02' E 003°37'22110.5
2014-Jul-14 20:15N 38°49' E 008°20'1110.8
2014-Jul-14 19:12N 38°48' E 008°35'19310.4
2014-Jul-14 00:33N 38°17' E 012°39'1010.4
2014-Jul-13 23:33N 38°16' E 012°52'1010.5
2014-Jul-13 22:33N 38°17' E 013°05'1010.3
2014-Jul-13 21:34N 38°17' E 013°18'10 9.9
2014-Jul-13 20:34N 38°17' E 013°31'1010.0
2014-Jul-13 19:34N 38°17' E 013°44'10 9.8
2014-Jul-13 18:33N 38°18' E 013°56'1010.0
2014-Jul-13 17:33N 38°19' E 014°09'  
Track history (hours):
 
Tides and Currents Weather Stations Pressure Air Temp Water Temp Dewpoint Dewpoint Depression Visibility Wind Speed Wind Dir Waves Ship Positions

Cdry Blue

Last reported at 2014-Jul-23 13:25 UTC. Time now 2014-Jul-28 06:15 UTC.
Position N 38°22' E 014°10'.

Length 108 m; draft 4.6 m.

Type: Cargo ship. MMSI: 247289300.

Date/timePositionNaut miles runAvg speedWind from/ knotsBaromVisibWave heightAir tempDewpointWater temp
2014-Jul-23 13:25N 38°22' E 014°10'1112.5
2014-Jul-23 12:33N 38°23' E 013°56'1312.9
2014-Jul-23 11:33N 38°23' E 013°40'1312.8
2014-Jul-23 10:33N 38°25' E 013°23'1412.7
2014-Jul-23 09:27N 38°26' E 013°05'1112.5
2014-Jul-23 08:33N 38°26' E 012°51'16112.2
2014-Jul-22 19:21N 38°38' E 009°26'1011.9
2014-Jul-22 18:33N 38°38' E 009°14'1311.8
2014-Jul-22 17:27N 38°39' E 008°57'1112.2
2014-Jul-22 16:33N 38°40' E 008°43'1611.9
2014-Jul-22 15:12N 38°43' E 008°23'2011.8
2014-Jul-22 13:30N 38°51' E 007°60'22112.0
2014-Jul-21 19:08N 40°38' E 003°47'812.0
2014-Jul-21 18:29N 40°41' E 003°38'1212.3
2014-Jul-21 17:31N 40°47' E 003°24'1211.9
2014-Jul-21 16:32N 40°52' E 003°10'1212.1
2014-Jul-21 15:33N 40°58' E 002°57'1312.5
2014-Jul-21 14:33N 41°04' E 002°42'1211.6
2014-Jul-21 13:30N 41°10' E 002°28'1512.1
2014-Jul-21 12:17N 41°17' E 002°11'4 0.2
2014-Jul-20 16:33N 41°21' E 002°09'0 0.0
2014-Jul-20 15:27N 41°21' E 002°09'0 0.0
2014-Jul-20 13:21N 41°21' E 002°09'0 0.0
2014-Jul-20 11:27N 41°21' E 002°09'0 0.0
2014-Jul-20 10:33N 41°21' E 002°09'0 0.0
2014-Jul-20 08:27N 41°21' E 002°09'0 0.0
2014-Jul-20 07:33N 41°21' E 002°09'0 0.0
2014-Jul-20 06:21N 41°21' E 002°09'0 0.0
2014-Jul-20 05:33N 41°21' E 002°09'0 0.0
2014-Jul-20 04:33N 41°21' E 002°09'0 0.0
2014-Jul-20 03:33N 41°21' E 002°09'0 0.0
2014-Jul-20 02:27N 41°21' E 002°09'0 0.0
2014-Jul-20 01:21N 41°21' E 002°09'0 0.0
2014-Jul-20 00:33N 41°21' E 002°09'0 0.0
2014-Jul-19 23:33N 41°21' E 002°09'0 0.0
2014-Jul-19 22:33N 41°21' E 002°09'0 0.0
2014-Jul-19 21:33N 41°21' E 002°09'0 0.0
2014-Jul-19 20:33N 41°21' E 002°09'0 0.0
2014-Jul-19 19:21N 41°21' E 002°09'0 0.0
2014-Jul-19 17:33N 41°21' E 002°09'0 0.0
2014-Jul-19 15:09N 41°21' E 002°09'0 0.0
2014-Jul-19 14:21N 41°21' E 002°09'0 0.0
2014-Jul-19 13:27N 41°21' E 002°09'0 0.0
2014-Jul-19 12:33N 41°21' E 002°09'0 0.0
2014-Jul-19 10:15N 41°21' E 002°09'0 0.0
2014-Jul-19 08:13N 41°21' E 002°09'2 2.8
2014-Jul-19 07:33N 41°19' E 002°10'5 4.7
2014-Jul-19 06:33N 41°14' E 002°10'1110.8
2014-Jul-19 05:33N 41°04' E 002°05'1110.7
2014-Jul-19 04:33N 40°54' E 002°00'1010.5
2014-Jul-19 03:33N 40°46' E 001°52'1010.5
2014-Jul-19 02:33N 40°39' E 001°41'1110.7
2014-Jul-19 01:32N 40°33' E 001°29'1111.0
2014-Jul-19 00:33N 40°27' E 001°18'4510.8
2014-Jul-18 20:21N 40°00' E 000°30'39 1.4
2014-Jul-17 16:08N 39°39' W 000°13'0 0.0
2014-Jul-17 15:20N 39°39' W 000°13'0 0.0
2014-Jul-16 10:32N 39°39' W 000°13'6310.4
2014-Jul-16 04:31N 39°24' E 001°06'1010.8
2014-Jul-16 03:33N 39°21' E 001°19'1110.9
2014-Jul-16 02:33N 39°19' E 001°33'1110.8
2014-Jul-16 01:33N 39°16' E 001°46'1110.8
2014-Jul-16 00:33N 39°14' E 002°00'1110.9
2014-Jul-15 23:34N 39°12' E 002°14'1110.7
2014-Jul-15 22:33N 39°09' E 002°27'1110.6
2014-Jul-15 21:33N 39°07' E 002°41'1010.5
2014-Jul-15 20:33N 39°04' E 002°54'1010.4
2014-Jul-15 19:33N 39°03' E 003°07'1110.5
2014-Jul-15 18:32N 39°03' E 003°21'1210.6
2014-Jul-15 17:22N 39°02' E 003°37'22110.5
2014-Jul-14 20:15N 38°49' E 008°20'1110.8
2014-Jul-14 19:12N 38°48' E 008°35'19310.4
2014-Jul-14 00:33N 38°17' E 012°39'1010.4
2014-Jul-13 23:33N 38°16' E 012°52'1010.5
2014-Jul-13 22:33N 38°17' E 013°05'1010.3
2014-Jul-13 21:34N 38°17' E 013°18'10 9.9
2014-Jul-13 20:34N 38°17' E 013°31'1010.0
2014-Jul-13 19:34N 38°17' E 013°44'10 9.8
2014-Jul-13 18:33N 38°18' E 013°56'1010.0
2014-Jul-13 17:33N 38°19' E 014°09'  

Dump ship's entire track history